sensor_id;sensor_type;location;lat;lon;timestamp;P1;durP1;ratioP1;P2;durP2;ratioP2
68886;SDS011;55925;51.764;6.402;2023-04-01T00:00:45;6.20;;;2.00;;
68886;SDS011;55925;51.764;6.402;2023-04-01T00:03:11;6.75;;;2.08;;
68886;SDS011;55925;51.764;6.402;2023-04-01T00:05:37;6.07;;;2.00;;
68886;SDS011;55925;51.764;6.402;2023-04-01T00:08:03;8.30;;;3.00;;
68886;SDS011;55925;51.764;6.402;2023-04-01T00:10:29;6.55;;;1.88;;
68886;SDS011;55925;51.764;6.402;2023-04-01T00:12:55;6.10;;;1.90;;
68886;SDS011;55925;51.764;6.402;2023-04-01T00:15:21;5.45;;;1.70;;
68886;SDS011;55925;51.764;6.402;2023-04-01T00:17:47;4.68;;;1.50;;
68886;SDS011;55925;51.764;6.402;2023-04-01T00:20:14;7.32;;;2.08;;
68886;SDS011;55925;51.764;6.402;2023-04-01T00:22:40;4.47;;;1.60;;
68886;SDS011;55925;51.764;6.402;2023-04-01T00:25:07;5.28;;;1.80;;
68886;SDS011;55925;51.764;6.402;2023-04-01T00:27:33;5.40;;;1.75;;
68886;SDS011;55925;51.764;6.402;2023-04-01T00:29:59;7.45;;;1.70;;
68886;SDS011;55925;51.764;6.402;2023-04-01T00:32:26;5.78;;;1.70;;
68886;SDS011;55925;51.764;6.402;2023-04-01T00:34:52;6.47;;;1.92;;
68886;SDS011;55925;51.764;6.402;2023-04-01T00:37:19;5.05;;;1.55;;
68886;SDS011;55925;51.764;6.402;2023-04-01T00:39:45;8.15;;;2.05;;
68886;SDS011;55925;51.764;6.402;2023-04-01T00:42:12;4.97;;;1.55;;
68886;SDS011;55925;51.764;6.402;2023-04-01T00:44:38;6.80;;;2.28;;
68886;SDS011;55925;51.764;6.402;2023-04-01T00:47:05;6.80;;;2.05;;
68886;SDS011;55925;51.764;6.402;2023-04-01T00:49:35;6.35;;;1.80;;
68886;SDS011;55925;51.764;6.402;2023-04-01T00:52:03;5.05;;;1.80;;
68886;SDS011;55925;51.764;6.402;2023-04-01T00:54:30;6.30;;;1.73;;
68886;SDS011;55925;51.764;6.402;2023-04-01T00:59:48;6.10;;;1.88;;
68886;SDS011;55925;51.764;6.402;2023-04-01T01:02:12;8.35;;;2.30;;
68886;SDS011;55925;51.764;6.402;2023-04-01T01:04:39;6.57;;;2.20;;
68886;SDS011;55925;51.764;6.402;2023-04-01T01:12:34;8.00;;;2.13;;
68886;SDS011;55925;51.764;6.402;2023-04-01T01:17:37;5.10;;;1.83;;
68886;SDS011;55925;51.764;6.402;2023-04-01T01:27:33;7.35;;;2.20;;
68886;SDS011;55925;51.764;6.402;2023-04-01T01:35:22;7.05;;;2.35;;
68886;SDS011;55925;51.764;6.402;2023-04-01T01:37:52;6.60;;;2.63;;
68886;SDS011;55925;51.764;6.402;2023-04-01T01:40:20;4.97;;;2.22;;
68886;SDS011;55925;51.764;6.402;2023-04-01T01:42:47;6.07;;;2.53;;
68886;SDS011;55925;51.764;6.402;2023-04-01T01:45:14;9.48;;;2.13;;
68886;SDS011;55925;51.764;6.402;2023-04-01T01:47:43;6.45;;;2.55;;
68886;SDS011;55925;51.764;6.402;2023-04-01T01:50:09;5.60;;;2.45;;
68886;SDS011;55925;51.764;6.402;2023-04-01T01:52:36;6.07;;;2.30;;
68886;SDS011;55925;51.764;6.402;2023-04-01T01:55:02;6.47;;;2.17;;
68886;SDS011;55925;51.764;6.402;2023-04-01T01:57:36;5.95;;;2.22;;
68886;SDS011;55925;51.764;6.402;2023-04-01T02:00:07;6.50;;;2.63;;
68886;SDS011;55925;51.764;6.402;2023-04-01T02:02:47;4.72;;;1.92;;
68886;SDS011;55925;51.764;6.402;2023-04-01T02:05:16;6.10;;;2.50;;
68886;SDS011;55925;51.764;6.402;2023-04-01T02:07:43;6.03;;;2.67;;
68886;SDS011;55925;51.764;6.402;2023-04-01T02:10:12;5.53;;;2.58;;
68886;SDS011;55925;51.764;6.402;2023-04-01T02:12:38;5.68;;;2.28;;
68886;SDS011;55925;51.764;6.402;2023-04-01T02:15:11;8.65;;;2.50;;
68886;SDS011;55925;51.764;6.402;2023-04-01T02:17:39;5.35;;;2.33;;
68886;SDS011;55925;51.764;6.402;2023-04-01T02:20:20;6.68;;;2.50;;
68886;SDS011;55925;51.764;6.402;2023-04-01T02:22:48;6.03;;;2.58;;
68886;SDS011;55925;51.764;6.402;2023-04-01T02:25:20;6.07;;;2.40;;
68886;SDS011;55925;51.764;6.402;2023-04-01T02:27:46;6.78;;;2.92;;
68886;SDS011;55925;51.764;6.402;2023-04-01T02:30:14;9.27;;;2.72;;
68886;SDS011;55925;51.764;6.402;2023-04-01T02:32:40;5.65;;;2.30;;
68886;SDS011;55925;51.764;6.402;2023-04-01T02:35:08;7.20;;;2.83;;
68886;SDS011;55925;51.764;6.402;2023-04-01T02:37:35;7.38;;;2.80;;
68886;SDS011;55925;51.764;6.402;2023-04-01T02:40:02;6.65;;;2.92;;
68886;SDS011;55925;51.764;6.402;2023-04-01T02:42:29;6.15;;;2.65;;
68886;SDS011;55925;51.764;6.402;2023-04-01T02:44:55;5.80;;;2.63;;
68886;SDS011;55925;51.764;6.402;2023-04-01T02:47:21;7.07;;;3.10;;
68886;SDS011;55925;51.764;6.402;2023-04-01T02:49:47;5.97;;;2.85;;
68886;SDS011;55925;51.764;6.402;2023-04-01T02:52:13;6.22;;;2.53;;
68886;SDS011;55925;51.764;6.402;2023-04-01T02:54:39;5.53;;;2.83;;
68886;SDS011;55925;51.764;6.402;2023-04-01T02:57:05;7.30;;;2.58;;
68886;SDS011;55925;51.764;6.402;2023-04-01T02:59:31;8.40;;;3.53;;
68886;SDS011;55925;51.764;6.402;2023-04-01T03:01:57;7.13;;;3.00;;
68886;SDS011;55925;51.764;6.402;2023-04-01T03:04:23;7.07;;;4.03;;
68886;SDS011;55925;51.764;6.402;2023-04-01T03:06:50;6.35;;;2.78;;
68886;SDS011;55925;51.764;6.402;2023-04-01T03:09:16;6.88;;;3.38;;
68886;SDS011;55925;51.764;6.402;2023-04-01T03:11:42;7.85;;;3.13;;
68886;SDS011;55925;51.764;6.402;2023-04-01T03:14:08;8.82;;;3.28;;
68886;SDS011;55925;51.764;6.402;2023-04-01T03:16:34;7.95;;;3.30;;
68886;SDS011;55925;51.764;6.402;2023-04-01T03:19:00;8.20;;;3.45;;
68886;SDS011;55925;51.764;6.402;2023-04-01T03:21:27;9.45;;;3.75;;
68886;SDS011;55925;51.764;6.402;2023-04-01T03:23:53;8.63;;;3.40;;
68886;SDS011;55925;51.764;6.402;2023-04-01T03:26:19;9.48;;;3.53;;
68886;SDS011;55925;51.764;6.402;2023-04-01T03:28:46;7.32;;;3.28;;
68886;SDS011;55925;51.764;6.402;2023-04-01T03:31:12;10.50;;;3.85;;
68886;SDS011;55925;51.764;6.402;2023-04-01T03:33:39;9.32;;;4.05;;
68886;SDS011;55925;51.764;6.402;2023-04-01T03:36:05;8.25;;;3.70;;
68886;SDS011;55925;51.764;6.402;2023-04-01T03:38:33;9.10;;;3.30;;
68886;SDS011;55925;51.764;6.402;2023-04-01T03:41:00;7.97;;;3.20;;
68886;SDS011;55925;51.764;6.402;2023-04-01T03:43:27;7.05;;;3.05;;
68886;SDS011;55925;51.764;6.402;2023-04-01T03:45:53;6.90;;;3.25;;
68886;SDS011;55925;51.764;6.402;2023-04-01T03:48:19;6.97;;;2.92;;
68886;SDS011;55925;51.764;6.402;2023-04-01T03:50:46;7.72;;;3.33;;
68886;SDS011;55925;51.764;6.402;2023-04-01T03:53:12;7.70;;;3.45;;
68886;SDS011;55925;51.764;6.402;2023-04-01T03:55:38;8.00;;;3.42;;
68886;SDS011;55925;51.764;6.402;2023-04-01T03:58:05;9.93;;;4.00;;
68886;SDS011;55925;51.764;6.402;2023-04-01T04:00:31;8.35;;;3.38;;
68886;SDS011;55925;51.764;6.402;2023-04-01T04:02:57;8.73;;;3.85;;
68886;SDS011;55925;51.764;6.402;2023-04-01T04:05:24;9.57;;;3.63;;
68886;SDS011;55925;51.764;6.402;2023-04-01T04:07:51;8.43;;;4.18;;
68886;SDS011;55925;51.764;6.402;2023-04-01T04:10:17;9.18;;;3.60;;
68886;SDS011;55925;51.764;6.402;2023-04-01T04:12:43;8.68;;;3.45;;
68886;SDS011;55925;51.764;6.402;2023-04-01T04:15:09;8.65;;;3.30;;
68886;SDS011;55925;51.764;6.402;2023-04-01T04:17:36;10.20;;;4.88;;
68886;SDS011;55925;51.764;6.402;2023-04-01T04:20:02;9.55;;;4.00;;
68886;SDS011;55925;51.764;6.402;2023-04-01T04:22:28;11.07;;;4.20;;
68886;SDS011;55925;51.764;6.402;2023-04-01T04:24:54;12.70;;;4.85;;
68886;SDS011;55925;51.764;6.402;2023-04-01T04:27:20;14.25;;;5.25;;
68886;SDS011;55925;51.764;6.402;2023-04-01T04:29:46;15.07;;;5.80;;
68886;SDS011;55925;51.764;6.402;2023-04-01T04:32:12;14.27;;;5.70;;
68886;SDS011;55925;51.764;6.402;2023-04-01T04:34:38;14.52;;;5.93;;
68886;SDS011;55925;51.764;6.402;2023-04-01T04:37:04;16.02;;;5.18;;
68886;SDS011;55925;51.764;6.402;2023-04-01T04:39:30;13.57;;;5.40;;
68886;SDS011;55925;51.764;6.402;2023-04-01T04:41:56;13.23;;;5.38;;
68886;SDS011;55925;51.764;6.402;2023-04-01T04:44:22;13.57;;;4.95;;
68886;SDS011;55925;51.764;6.402;2023-04-01T04:46:48;14.05;;;6.43;;
68886;SDS011;55925;51.764;6.402;2023-04-01T04:49:14;14.02;;;5.60;;
68886;SDS011;55925;51.764;6.402;2023-04-01T04:51:41;13.50;;;5.60;;
68886;SDS011;55925;51.764;6.402;2023-04-01T04:54:07;13.50;;;5.22;;
68886;SDS011;55925;51.764;6.402;2023-04-01T04:56:33;15.50;;;5.80;;
68886;SDS011;55925;51.764;6.402;2023-04-01T04:59:00;13.57;;;6.15;;
68886;SDS011;55925;51.764;6.402;2023-04-01T05:01:27;16.02;;;5.90;;
68886;SDS011;55925;51.764;6.402;2023-04-01T05:03:53;18.42;;;5.65;;
68886;SDS011;55925;51.764;6.402;2023-04-01T05:06:19;15.95;;;5.75;;
68886;SDS011;55925;51.764;6.402;2023-04-01T05:08:45;14.48;;;5.70;;
68886;SDS011;55925;51.764;6.402;2023-04-01T05:11:12;12.43;;;4.78;;
68886;SDS011;55925;51.764;6.402;2023-04-01T05:13:39;11.90;;;5.68;;
68886;SDS011;55925;51.764;6.402;2023-04-01T05:16:09;14.60;;;5.25;;
68886;SDS011;55925;51.764;6.402;2023-04-01T05:18:35;11.57;;;5.07;;
68886;SDS011;55925;51.764;6.402;2023-04-01T05:21:01;10.48;;;4.35;;
68886;SDS011;55925;51.764;6.402;2023-04-01T05:23:27;10.65;;;4.22;;
68886;SDS011;55925;51.764;6.402;2023-04-01T05:25:53;12.38;;;4.35;;
68886;SDS011;55925;51.764;6.402;2023-04-01T05:28:21;10.60;;;4.57;;
68886;SDS011;55925;51.764;6.402;2023-04-01T05:30:47;13.32;;;5.30;;
68886;SDS011;55925;51.764;6.402;2023-04-01T05:33:13;11.50;;;4.13;;
68886;SDS011;55925;51.764;6.402;2023-04-01T05:35:40;10.93;;;4.55;;
68886;SDS011;55925;51.764;6.402;2023-04-01T05:38:06;12.38;;;5.75;;
68886;SDS011;55925;51.764;6.402;2023-04-01T05:40:32;12.98;;;5.00;;
68886;SDS011;55925;51.764;6.402;2023-04-01T05:42:58;10.32;;;4.20;;
68886;SDS011;55925;51.764;6.402;2023-04-01T05:45:25;9.10;;;3.58;;
68886;SDS011;55925;51.764;6.402;2023-04-01T05:47:51;10.23;;;3.85;;
68886;SDS011;55925;51.764;6.402;2023-04-01T05:50:17;10.48;;;4.47;;
68886;SDS011;55925;51.764;6.402;2023-04-01T05:52:43;9.15;;;4.25;;
68886;SDS011;55925;51.764;6.402;2023-04-01T05:55:09;10.95;;;3.90;;
68886;SDS011;55925;51.764;6.402;2023-04-01T05:57:35;12.18;;;5.13;;
68886;SDS011;55925;51.764;6.402;2023-04-01T06:00:02;11.20;;;4.32;;
68886;SDS011;55925;51.764;6.402;2023-04-01T06:02:29;12.32;;;4.85;;
68886;SDS011;55925;51.764;6.402;2023-04-01T06:05:03;10.80;;;4.47;;
68886;SDS011;55925;51.764;6.402;2023-04-01T06:07:36;12.73;;;4.57;;
68886;SDS011;55925;51.764;6.402;2023-04-01T06:10:08;11.85;;;4.47;;
68886;SDS011;55925;51.764;6.402;2023-04-01T06:12:50;12.55;;;4.75;;
68886;SDS011;55925;51.764;6.402;2023-04-01T06:25:31;9.65;;;4.00;;
68886;SDS011;55925;51.764;6.402;2023-04-01T06:30:47;9.93;;;4.18;;
68886;SDS011;55925;51.764;6.402;2023-04-01T06:46:13;11.77;;;4.57;;
68886;SDS011;55925;51.764;6.402;2023-04-01T06:48:49;11.43;;;4.53;;
68886;SDS011;55925;51.764;6.402;2023-04-01T06:51:59;10.70;;;3.95;;
68886;SDS011;55925;51.764;6.402;2023-04-01T06:54:09;10.88;;;4.68;;
68886;SDS011;55925;51.764;6.402;2023-04-01T06:56:36;13.93;;;5.13;;
68886;SDS011;55925;51.764;6.402;2023-04-01T06:59:13;12.20;;;4.80;;
68886;SDS011;55925;51.764;6.402;2023-04-01T07:01:45;14.15;;;5.20;;
68886;SDS011;55925;51.764;6.402;2023-04-01T07:06:56;14.27;;;5.93;;
68886;SDS011;55925;51.764;6.402;2023-04-01T07:09:34;14.30;;;5.57;;
68886;SDS011;55925;51.764;6.402;2023-04-01T07:12:02;13.98;;;5.55;;
68886;SDS011;55925;51.764;6.402;2023-04-01T07:14:35;14.20;;;5.72;;
68886;SDS011;55925;51.764;6.402;2023-04-01T07:17:17;14.05;;;5.28;;
68886;SDS011;55925;51.764;6.402;2023-04-01T07:19:47;16.98;;;6.25;;
68886;SDS011;55925;51.764;6.402;2023-04-01T07:22:33;15.50;;;6.65;;
68886;SDS011;55925;51.764;6.402;2023-04-01T07:27:45;14.80;;;6.18;;
68886;SDS011;55925;51.764;6.402;2023-04-01T07:30:15;17.23;;;5.95;;
68886;SDS011;55925;51.764;6.402;2023-04-01T07:32:44;16.08;;;6.07;;
68886;SDS011;55925;51.764;6.402;2023-04-01T07:38:07;13.75;;;5.43;;
68886;SDS011;55925;51.764;6.402;2023-04-01T07:43:11;14.43;;;5.55;;
68886;SDS011;55925;51.764;6.402;2023-04-01T07:58:40;13.73;;;5.70;;
68886;SDS011;55925;51.764;6.402;2023-04-01T08:03:38;16.38;;;6.00;;
68886;SDS011;55925;51.764;6.402;2023-04-01T08:06:24;16.45;;;6.70;;
68886;SDS011;55925;51.764;6.402;2023-04-01T08:14:36;14.18;;;6.65;;
68886;SDS011;55925;51.764;6.402;2023-04-01T08:16:44;15.52;;;5.53;;
68886;SDS011;55925;51.764;6.402;2023-04-01T08:19:20;14.38;;;5.75;;
68886;SDS011;55925;51.764;6.402;2023-04-01T08:21:48;12.88;;;5.00;;
68886;SDS011;55925;51.764;6.402;2023-04-01T08:26:48;15.93;;;5.88;;
68886;SDS011;55925;51.764;6.402;2023-04-01T08:29:17;17.45;;;5.57;;
68886;SDS011;55925;51.764;6.402;2023-04-01T08:31:51;11.88;;;5.07;;
68886;SDS011;55925;51.764;6.402;2023-04-01T08:34:30;13.15;;;5.43;;
68886;SDS011;55925;51.764;6.402;2023-04-01T08:37:02;15.25;;;5.65;;
68886;SDS011;55925;51.764;6.402;2023-04-01T08:39:31;10.57;;;4.72;;
68886;SDS011;55925;51.764;6.402;2023-04-01T08:44:57;5.82;;;2.20;;
68886;SDS011;55925;51.764;6.402;2023-04-01T08:55:31;4.47;;;1.73;;
68886;SDS011;55925;51.764;6.402;2023-04-01T09:00:33;3.15;;;1.15;;
68886;SDS011;55925;51.764;6.402;2023-04-01T09:05:57;7.90;;;2.40;;
68886;SDS011;55925;51.764;6.402;2023-04-01T09:11:02;7.95;;;3.05;;
68886;SDS011;55925;51.764;6.402;2023-04-01T09:16:13;9.38;;;3.75;;
68886;SDS011;55925;51.764;6.402;2023-04-01T09:37:13;7.43;;;3.15;;
68886;SDS011;55925;51.764;6.402;2023-04-01T09:42:26;6.82;;;2.83;;
68886;SDS011;55925;51.764;6.402;2023-04-01T09:44:59;5.35;;;2.10;;
68886;SDS011;55925;51.764;6.402;2023-04-01T09:56:01;6.78;;;2.95;;
68886;SDS011;55925;51.764;6.402;2023-04-01T10:00:53;6.13;;;2.75;;
68886;SDS011;55925;51.764;6.402;2023-04-01T10:14:50;6.72;;;2.78;;
68886;SDS011;55925;51.764;6.402;2023-04-01T10:27:21;11.25;;;3.20;;
68886;SDS011;55925;51.764;6.402;2023-04-01T10:35:10;6.85;;;2.70;;
68886;SDS011;55925;51.764;6.402;2023-04-01T10:40:23;7.88;;;3.10;;
68886;SDS011;55925;51.764;6.402;2023-04-01T10:47:58;7.28;;;2.80;;
68886;SDS011;55925;51.764;6.402;2023-04-01T11:16:57;8.82;;;3.65;;
68886;SDS011;55925;51.764;6.402;2023-04-01T11:24:42;7.38;;;3.13;;
68886;SDS011;55925;51.764;6.402;2023-04-01T11:30:03;9.85;;;3.70;;
68886;SDS011;55925;51.764;6.402;2023-04-01T11:45:12;9.90;;;4.25;;
68886;SDS011;55925;51.764;6.402;2023-04-01T11:50:53;10.32;;;4.30;;
68886;SDS011;55925;51.764;6.402;2023-04-01T11:53:33;10.90;;;4.93;;
68886;SDS011;55925;51.764;6.402;2023-04-01T12:11:53;12.43;;;6.00;;
68886;SDS011;55925;51.764;6.402;2023-04-01T12:38:43;13.00;;;4.78;;
68886;SDS011;55925;51.764;6.402;2023-04-01T12:41:21;13.02;;;5.47;;
68886;SDS011;55925;51.764;6.402;2023-04-01T12:46:26;8.95;;;4.60;;
68886;SDS011;55925;51.764;6.402;2023-04-01T12:54:08;10.77;;;5.13;;
68886;SDS011;55925;51.764;6.402;2023-04-01T13:01:55;12.60;;;5.45;;
68886;SDS011;55925;51.764;6.402;2023-04-01T13:17:15;14.00;;;6.53;;
68886;SDS011;55925;51.764;6.402;2023-04-01T13:19:48;12.60;;;6.00;;
68886;SDS011;55925;51.764;6.402;2023-04-01T13:27:30;16.40;;;7.18;;
68886;SDS011;55925;51.764;6.402;2023-04-01T13:32:47;12.50;;;5.93;;
68886;SDS011;55925;51.764;6.402;2023-04-01T13:43:10;12.68;;;6.07;;
68886;SDS011;55925;51.764;6.402;2023-04-01T13:45:42;12.88;;;6.18;;
68886;SDS011;55925;51.764;6.402;2023-04-01T13:53:06;13.77;;;5.88;;
68886;SDS011;55925;51.764;6.402;2023-04-01T13:55:44;13.00;;;6.18;;
68886;SDS011;55925;51.764;6.402;2023-04-01T14:03:36;10.05;;;5.15;;
68886;SDS011;55925;51.764;6.402;2023-04-01T14:06:23;10.55;;;4.85;;
68886;SDS011;55925;51.764;6.402;2023-04-01T14:13:56;8.05;;;3.90;;
68886;SDS011;55925;51.764;6.402;2023-04-01T14:24:17;7.47;;;3.30;;
68886;SDS011;55925;51.764;6.402;2023-04-01T14:47:48;9.30;;;4.20;;
68886;SDS011;55925;51.764;6.402;2023-04-01T14:50:49;9.35;;;4.57;;
68886;SDS011;55925;51.764;6.402;2023-04-01T14:53:13;7.50;;;3.67;;
68886;SDS011;55925;51.764;6.402;2023-04-01T15:03:08;7.38;;;3.35;;
68886;SDS011;55925;51.764;6.402;2023-04-01T15:05:45;7.78;;;4.00;;
68886;SDS011;55925;51.764;6.402;2023-04-01T15:08:18;7.22;;;3.47;;
68886;SDS011;55925;51.764;6.402;2023-04-01T15:18:33;5.57;;;2.83;;
68886;SDS011;55925;51.764;6.402;2023-04-01T15:33:45;4.63;;;1.90;;
68886;SDS011;55925;51.764;6.402;2023-04-01T15:36:22;4.20;;;1.95;;
68886;SDS011;55925;51.764;6.402;2023-04-01T15:38:53;4.97;;;2.20;;
68886;SDS011;55925;51.764;6.402;2023-04-01T15:41:28;6.90;;;2.75;;
68886;SDS011;55925;51.764;6.402;2023-04-01T15:44:00;5.80;;;2.53;;
68886;SDS011;55925;51.764;6.402;2023-04-01T15:46:36;5.53;;;3.00;;
68886;SDS011;55925;51.764;6.402;2023-04-01T16:09:47;6.05;;;2.58;;
68886;SDS011;55925;51.764;6.402;2023-04-01T16:19:59;6.82;;;3.15;;
68886;SDS011;55925;51.764;6.402;2023-04-01T16:25:14;5.53;;;2.80;;
68886;SDS011;55925;51.764;6.402;2023-04-01T16:30:35;5.53;;;2.75;;
68886;SDS011;55925;51.764;6.402;2023-04-01T16:43:28;8.80;;;3.95;;
68886;SDS011;55925;51.764;6.402;2023-04-01T16:46:58;9.60;;;5.43;;
68886;SDS011;55925;51.764;6.402;2023-04-01T16:48:58;11.90;;;6.53;;
68886;SDS011;55925;51.764;6.402;2023-04-01T16:51:37;10.20;;;5.72;;
68886;SDS011;55925;51.764;6.402;2023-04-01T16:54:10;7.85;;;4.10;;
68886;SDS011;55925;51.764;6.402;2023-04-01T16:56:44;11.25;;;5.45;;
68886;SDS011;55925;51.764;6.402;2023-04-01T16:59:17;14.73;;;6.78;;
68886;SDS011;55925;51.764;6.402;2023-04-01T17:07:00;9.38;;;5.03;;
68886;SDS011;55925;51.764;6.402;2023-04-01T17:09:41;10.90;;;5.88;;
68886;SDS011;55925;51.764;6.402;2023-04-01T17:12:20;12.20;;;5.47;;
68886;SDS011;55925;51.764;6.402;2023-04-01T17:15:03;10.30;;;5.07;;
68886;SDS011;55925;51.764;6.402;2023-04-01T17:17:37;12.40;;;5.68;;
68886;SDS011;55925;51.764;6.402;2023-04-01T17:22:52;12.20;;;6.10;;
68886;SDS011;55925;51.764;6.402;2023-04-01T17:32:54;7.43;;;3.75;;
68886;SDS011;55925;51.764;6.402;2023-04-01T17:35:23;8.25;;;4.60;;
68886;SDS011;55925;51.764;6.402;2023-04-01T17:38:12;8.07;;;4.15;;
68886;SDS011;55925;51.764;6.402;2023-04-01T17:49:18;8.77;;;4.15;;
68886;SDS011;55925;51.764;6.402;2023-04-01T17:54:33;9.98;;;4.28;;
68886;SDS011;55925;51.764;6.402;2023-04-01T17:57:23;9.13;;;4.43;;
68886;SDS011;55925;51.764;6.402;2023-04-01T18:00:02;7.45;;;4.03;;
68886;SDS011;55925;51.764;6.402;2023-04-01T18:10:23;8.48;;;4.00;;
68886;SDS011;55925;51.764;6.402;2023-04-01T18:15:52;6.43;;;3.35;;
68886;SDS011;55925;51.764;6.402;2023-04-01T18:24:10;7.03;;;3.60;;
68886;SDS011;55925;51.764;6.402;2023-04-01T18:26:35;6.22;;;2.97;;
68886;SDS011;55925;51.764;6.402;2023-04-01T18:31:45;6.60;;;3.47;;
68886;SDS011;55925;51.764;6.402;2023-04-01T18:44:51;5.97;;;3.05;;
68886;SDS011;55925;51.764;6.402;2023-04-01T18:50:11;6.45;;;2.88;;
68886;SDS011;55925;51.764;6.402;2023-04-01T18:52:41;5.47;;;2.97;;
68886;SDS011;55925;51.764;6.402;2023-04-01T18:55:22;5.88;;;2.92;;
68886;SDS011;55925;51.764;6.402;2023-04-01T18:57:52;5.63;;;2.83;;
68886;SDS011;55925;51.764;6.402;2023-04-01T19:00:20;6.53;;;3.50;;
68886;SDS011;55925;51.764;6.402;2023-04-01T19:02:51;5.85;;;2.92;;
68886;SDS011;55925;51.764;6.402;2023-04-01T19:05:19;5.63;;;3.20;;
68886;SDS011;55925;51.764;6.402;2023-04-01T19:26:04;4.45;;;2.42;;
68886;SDS011;55925;51.764;6.402;2023-04-01T19:28:53;5.93;;;2.55;;
68886;SDS011;55925;51.764;6.402;2023-04-01T19:36:42;5.97;;;2.70;;
68886;SDS011;55925;51.764;6.402;2023-04-01T19:47:01;5.68;;;2.90;;
68886;SDS011;55925;51.764;6.402;2023-04-01T19:54:47;5.68;;;2.70;;
68886;SDS011;55925;51.764;6.402;2023-04-01T20:04:53;4.90;;;2.45;;
68886;SDS011;55925;51.764;6.402;2023-04-01T20:07:27;5.10;;;2.70;;
68886;SDS011;55925;51.764;6.402;2023-04-01T20:10:05;6.85;;;3.40;;
68886;SDS011;55925;51.764;6.402;2023-04-01T20:17:59;5.30;;;2.53;;
68886;SDS011;55925;51.764;6.402;2023-04-01T20:20:26;7.07;;;3.08;;
68886;SDS011;55925;51.764;6.402;2023-04-01T20:23:03;6.28;;;3.38;;
68886;SDS011;55925;51.764;6.402;2023-04-01T20:25:38;7.38;;;3.13;;
68886;SDS011;55925;51.764;6.402;2023-04-01T20:36:05;5.55;;;2.72;;
68886;SDS011;55925;51.764;6.402;2023-04-01T20:41:06;3.90;;;1.98;;
68886;SDS011;55925;51.764;6.402;2023-04-01T20:43:39;5.38;;;2.72;;
68886;SDS011;55925;51.764;6.402;2023-04-01T20:46:22;5.30;;;2.47;;
68886;SDS011;55925;51.764;6.402;2023-04-01T20:51:16;4.55;;;2.13;;
68886;SDS011;55925;51.764;6.402;2023-04-01T20:56:11;4.35;;;2.00;;
68886;SDS011;55925;51.764;6.402;2023-04-01T21:09:43;6.20;;;2.83;;
68886;SDS011;55925;51.764;6.402;2023-04-01T21:26:16;6.28;;;3.45;;
68886;SDS011;55925;51.764;6.402;2023-04-01T21:31:31;5.22;;;2.78;;
68886;SDS011;55925;51.764;6.402;2023-04-01T21:34:14;5.75;;;2.78;;
68886;SDS011;55925;51.764;6.402;2023-04-01T21:37:04;5.25;;;2.85;;
68886;SDS011;55925;51.764;6.402;2023-04-01T21:47:30;5.72;;;2.70;;
68886;SDS011;55925;51.764;6.402;2023-04-01T22:10:54;7.30;;;3.50;;
68886;SDS011;55925;51.764;6.402;2023-04-01T22:13:29;6.78;;;3.45;;
68886;SDS011;55925;51.764;6.402;2023-04-01T22:16:11;8.63;;;4.45;;
68886;SDS011;55925;51.764;6.402;2023-04-01T22:18:50;7.38;;;4.22;;
68886;SDS011;55925;51.764;6.402;2023-04-01T22:21:29;6.95;;;3.58;;
68886;SDS011;55925;51.764;6.402;2023-04-01T22:24:07;7.60;;;4.35;;
68886;SDS011;55925;51.764;6.402;2023-04-01T22:31:40;7.13;;;3.60;;
68886;SDS011;55925;51.764;6.402;2023-04-01T22:36:56;6.40;;;3.33;;
68886;SDS011;55925;51.764;6.402;2023-04-01T22:39:48;6.43;;;3.10;;
68886;SDS011;55925;51.764;6.402;2023-04-01T22:49:49;6.38;;;3.13;;
68886;SDS011;55925;51.764;6.402;2023-04-01T22:54:49;6.03;;;2.90;;
68886;SDS011;55925;51.764;6.402;2023-04-01T22:57:32;5.80;;;2.85;;
68886;SDS011;55925;51.764;6.402;2023-04-01T23:02:42;6.40;;;3.03;;
68886;SDS011;55925;51.764;6.402;2023-04-01T23:05:12;7.85;;;3.20;;
68886;SDS011;55925;51.764;6.402;2023-04-01T23:12:46;7.10;;;3.78;;
68886;SDS011;55925;51.764;6.402;2023-04-01T23:15:13;8.68;;;3.05;;
68886;SDS011;55925;51.764;6.402;2023-04-01T23:17:47;7.88;;;3.00;;
68886;SDS011;55925;51.764;6.402;2023-04-01T23:33:50;6.45;;;3.47;;
68886;SDS011;55925;51.764;6.402;2023-04-01T23:35:59;7.50;;;3.22;;
68886;SDS011;55925;51.764;6.402;2023-04-01T23:38:35;6.65;;;3.55;;
68886;SDS011;55925;51.764;6.402;2023-04-01T23:41:02;8.73;;;3.67;;
68886;SDS011;55925;51.764;6.402;2023-04-01T23:43:30;7.93;;;4.03;;
68886;SDS011;55925;51.764;6.402;2023-04-01T23:45:57;7.45;;;3.55;;
68886;SDS011;55925;51.764;6.402;2023-04-01T23:48:29;7.18;;;3.67;;
68886;SDS011;55925;51.764;6.402;2023-04-01T23:50:56;6.03;;;3.28;;
68886;SDS011;55925;51.764;6.402;2023-04-01T23:53:26;8.82;;;4.15;;
68886;SDS011;55925;51.764;6.402;2023-04-01T23:55:53;7.32;;;3.35;;
68886;SDS011;55925;51.764;6.402;2023-04-01T23:58:22;7.82;;;4.15;;
